Time;durP1;ratioP1;P1;durP2;ratioP2;P2;SDS_P1;SDS_P2;PMS_P1;PMS_P2;Temp;Humidity;BMP_temperature;BMP_pressure;BME280_temperature;BME280_humidity;BME280_pressure;Samples;Min_cycle;Max_cycle;Signal;HPM_P1;HPM_P2
2022/08/05 00:00:21;;;;;;;4.85;3.30;;;;;;;;;;4993890;28;20097;-77
2022/08/05 00:02:48;;;;;;;5.60;3.50;;;;;;;;;;4989356;28;20499;-73
2022/08/05 00:05:14;;;;;;;4.78;3.30;;;;;;;;;;4988309;28;20022;-73
2022/08/05 00:07:40;;;;;;;5.50;3.40;;;;;;;;;;5000463;28;20034;-73
2022/08/05 00:10:06;;;;;;;7.20;3.13;;;;;;;;;;4994126;28;20026;-73
2022/08/05 00:12:32;;;;;;;3.97;3.17;;;;;;;;;;4985490;28;20026;-73
2022/08/05 00:14:58;;;;;;;3.33;3.03;;;;;;;;;;4994081;28;20084;-74
2022/08/05 00:17:24;;;;;;;9.13;3.50;;;;;;;;;;4993083;28;20018;-73
2022/08/05 00:19:50;;;;;;;4.13;3.40;;;;;;;;;;4993948;28;20380;-74
2022/08/05 00:22:16;;;;;;;4.18;3.30;;;;;;;;;;4993066;28;21570;-78
2022/08/05 00:24:43;;;;;;;3.75;3.00;;;;;;;;;;4995214;28;20069;-74
2022/08/05 00:27:09;;;;;;;3.92;3.00;;;;;;;;;;4993927;28;20018;-73
2022/08/05 00:29:35;;;;;;;5.20;3.17;;;;;;;;;;4993322;28;20109;-73
2022/08/05 00:32:02;;;;;;;3.28;2.95;;;;;;;;;;4992222;28;20026;-73
2022/08/05 00:34:28;;;;;;;5.80;3.40;;;;;;;;;;4953386;28;1171817;-75
2022/08/05 00:36:54;;;;;;;3.55;3.10;;;;;;;;;;4994979;28;20140;-73
2022/08/05 00:39:20;;;;;;;4.47;2.97;;;;;;;;;;5000622;28;20030;-73
2022/08/05 00:41:47;;;;;;;3.58;3.05;;;;;;;;;;4997003;28;20026;-73
2022/08/05 00:44:13;;;;;;;5.25;2.92;;;;;;;;;;4994464;28;20105;-80
2022/08/05 00:46:39;;;;;;;7.45;3.28;;;;;;;;;;4992558;28;20030;-73
2022/08/05 00:49:05;;;;;;;4.32;3.10;;;;;;;;;;4995033;28;20037;-76
2022/08/05 00:51:31;;;;;;;3.70;2.97;;;;;;;;;;4994938;28;20451;-77
2022/08/05 00:53:58;;;;;;;3.22;2.92;;;;;;;;;;4993826;28;20377;-78
2022/08/05 00:56:24;;;;;;;5.13;3.05;;;;;;;;;;4990057;28;20062;-74
2022/08/05 00:58:50;;;;;;;5.95;3.13;;;;;;;;;;4986506;28;20026;-79
2022/08/05 01:01:16;;;;;;;9.93;3.50;;;;;;;;;;5005519;28;20022;-76
2022/08/05 01:03:42;;;;;;;8.13;3.38;;;;;;;;;;4993776;28;20018;-75
2022/08/05 01:06:09;;;;;;;4.32;3.15;;;;;;;;;;4989734;28;20534;-73
2022/08/05 01:08:35;;;;;;;5.80;3.10;;;;;;;;;;4994146;28;20058;-72
2022/08/05 01:11:06;;;;;;;4.28;3.17;;;;;;;;;;4999327;28;20034;-76
2022/08/05 01:13:35;;;;;;;3.58;2.92;;;;;;;;;;4994094;28;20388;-80
2022/08/05 01:16:02;;;;;;;5.80;3.00;;;;;;;;;;4993486;28;20034;-74
2022/08/05 01:18:31;;;;;;;4.93;3.28;;;;;;;;;;4999513;28;20025;-73
2022/08/05 01:21:03;;;;;;;3.78;2.95;;;;;;;;;;4994022;28;20453;-74
2022/08/05 01:23:32;;;;;;;4.18;3.00;;;;;;;;;;4981178;28;20046;-73
2022/08/05 01:26:16;;;;;;;6.40;3.40;;;;;;;;;;4995751;28;20049;-74
2022/08/05 01:28:55;;;;;;;4.00;2.88;;;;;;;;;;4981583;28;20073;-83
2022/08/05 01:31:27;;;;;;;7.30;3.10;;;;;;;;;;5000818;28;20032;-72
2022/08/05 01:34:01;;;;;;;4.03;2.90;;;;;;;;;;4993147;28;20125;-73
2022/08/05 01:36:30;;;;;;;3.30;2.97;;;;;;;;;;4993291;28;20192;-83
2022/08/05 01:38:56;;;;;;;7.30;2.92;;;;;;;;;;4986755;28;20484;-74
2022/08/05 01:41:23;;;;;;;3.67;3.20;;;;;;;;;;4995828;28;20034;-81
2022/08/05 01:43:50;;;;;;;3.20;2.70;;;;;;;;;;4997281;28;20030;-80
2022/08/05 01:46:17;;;;;;;7.18;3.40;;;;;;;;;;4993597;28;20042;-74
2022/08/05 01:48:44;;;;;;;6.78;3.25;;;;;;;;;;4992884;28;20058;-77
2022/08/05 01:51:11;;;;;;;4.15;3.03;;;;;;;;;;4997394;28;20030;-75
2022/08/05 01:53:37;;;;;;;5.03;2.80;;;;;;;;;;4997776;28;20022;-73
2022/08/05 01:56:04;;;;;;;4.03;3.00;;;;;;;;;;4993365;28;20511;-76
2022/08/05 01:58:31;;;;;;;4.45;3.00;;;;;;;;;;4992245;28;20030;-76
2022/08/05 02:00:58;;;;;;;4.72;2.95;;;;;;;;;;4993350;28;20487;-75
2022/08/05 02:03:26;;;;;;;3.17;2.88;;;;;;;;;;4992034;28;20388;-74
2022/08/05 02:05:53;;;;;;;3.58;2.80;;;;;;;;;;4991691;28;20472;-73
2022/08/05 02:08:19;;;;;;;4.53;3.03;;;;;;;;;;5003705;28;20081;-75
2022/08/05 02:10:50;;;;;;;3.38;2.88;;;;;;;;;;5001460;28;20014;-73
2022/08/05 02:13:18;;;;;;;5.95;3.08;;;;;;;;;;4992933;28;20030;-73
2022/08/05 02:15:46;;;;;;;11.57;4.28;;;;;;;;;;4993101;28;20030;-75
2022/08/05 02:18:33;;;;;;;3.38;3.08;;;;;;;;;;4996550;28;20472;-72
2022/08/05 02:21:08;;;;;;;4.22;2.80;;;;;;;;;;4991426;28;20092;-73
2022/08/05 02:23:37;;;;;;;6.25;2.80;;;;;;;;;;4980622;28;20061;-74
2022/08/05 02:26:05;;;;;;;6.63;3.20;;;;;;;;;;5002062;28;20037;-80
2022/08/05 02:28:34;;;;;;;4.22;2.90;;;;;;;;;;4997654;28;20022;-72
2022/08/05 02:31:01;;;;;;;4.40;2.92;;;;;;;;;;4992693;28;20041;-73
2022/08/05 02:33:29;;;;;;;4.22;3.10;;;;;;;;;;4984617;28;20023;-73
2022/08/05 02:35:57;;;;;;;5.53;2.90;;;;;;;;;;4992771;28;20105;-71
2022/08/05 02:38:24;;;;;;;6.15;3.00;;;;;;;;;;4993718;28;20034;-72
2022/08/05 02:40:51;;;;;;;4.95;2.95;;;;;;;;;;4992706;28;20081;-73
2022/08/05 02:43:17;;;;;;;3.58;3.00;;;;;;;;;;4995367;28;20034;-72
2022/08/05 02:45:44;;;;;;;4.82;3.20;;;;;;;;;;4990664;28;20027;-73
2022/08/05 02:48:10;;;;;;;4.03;3.08;;;;;;;;;;4985824;28;20030;-84
2022/08/05 02:50:37;;;;;;;6.40;3.30;;;;;;;;;;4995770;28;20438;-73
2022/08/05 02:53:04;;;;;;;5.80;3.58;;;;;;;;;;5001967;28;20034;-73
2022/08/05 02:55:31;;;;;;;8.82;3.10;;;;;;;;;;5009196;28;20038;-72
2022/08/05 02:57:58;;;;;;;8.48;4.70;;;;;;;;;;4996936;28;20022;-83
2022/08/05 03:00:24;;;;;;;18.30;4.30;;;;;;;;;;5004356;28;20072;-73
2022/08/05 03:02:51;;;;;;;5.82;3.67;;;;;;;;;;4995341;28;20069;-73
2022/08/05 03:05:18;;;;;;;7.10;3.63;;;;;;;;;;5005086;28;20089;-73
2022/08/05 03:07:44;;;;;;;6.22;3.60;;;;;;;;;;4996371;28;20464;-75
2022/08/05 03:10:11;;;;;;;3.80;3.00;;;;;;;;;;4995603;28;20062;-77
2022/08/05 03:12:38;;;;;;;6.90;3.22;;;;;;;;;;4995959;28;20089;-73
2022/08/05 03:15:05;;;;;;;7.30;3.28;;;;;;;;;;4996322;28;20076;-72
2022/08/05 03:17:31;;;;;;;3.72;3.20;;;;;;;;;;4996855;28;22055;-73
2022/08/05 03:19:57;;;;;;;5.00;3.22;;;;;;;;;;4995709;28;20034;-77
2022/08/05 03:22:24;;;;;;;6.28;3.67;;;;;;;;;;4997738;28;20022;-73
2022/08/05 03:24:50;;;;;;;9.38;4.97;;;;;;;;;;4995844;28;20038;-73
2022/08/05 03:27:17;;;;;;;11.75;4.55;;;;;;;;;;4988750;28;20022;-73
2022/08/05 03:29:43;;;;;;;6.20;3.63;;;;;;;;;;4994747;28;20041;-74
2022/08/05 03:32:09;;;;;;;6.55;3.75;;;;;;;;;;5007245;28;20483;-82
2022/08/05 03:34:36;;;;;;;6.20;3.42;;;;;;;;;;5000742;28;20121;-72
2022/08/05 03:37:03;;;;;;;5.38;3.50;;;;;;;;;;4996130;28;20030;-73
2022/08/05 03:39:29;;;;;;;7.97;3.50;;;;;;;;;;4994961;28;20033;-74
2022/08/05 03:41:55;;;;;;;6.93;3.45;;;;;;;;;;4997011;28;20555;-74
2022/08/05 03:44:21;;;;;;;6.82;3.55;;;;;;;;;;4995306;28;20038;-73
2022/08/05 03:46:47;;;;;;;12.95;3.78;;;;;;;;;;4996020;28;20387;-76
2022/08/05 03:49:14;;;;;;;5.10;3.65;;;;;;;;;;4996709;28;20102;-74
2022/08/05 03:52:00;;;;;;;6.18;3.20;;;;;;;;;;5010118;28;20479;-73
2022/08/05 03:54:38;;;;;;;6.07;3.50;;;;;;;;;;4995423;28;20069;-75
2022/08/05 03:57:06;;;;;;;8.15;3.80;;;;;;;;;;4995500;28;20034;-75
2022/08/05 03:59:40;;;;;;;11.88;4.00;;;;;;;;;;4996660;28;20019;-73
2022/08/05 04:02:07;;;;;;;9.48;4.03;;;;;;;;;;5000756;28;20080;-80
2022/08/05 04:04:33;;;;;;;7.60;3.28;;;;;;;;;;4996388;28;20425;-79
2022/08/05 04:07:00;;;;;;;13.50;4.00;;;;;;;;;;4995098;28;20143;-73
2022/08/05 04:09:26;;;;;;;6.75;4.38;;;;;;;;;;4994825;28;20050;-74
2022/08/05 04:11:52;;;;;;;7.03;4.05;;;;;;;;;;4993754;28;20030;-80
2022/08/05 04:14:19;;;;;;;13.32;4.70;;;;;;;;;;4994655;28;20159;-73
2022/08/05 04:16:45;;;;;;;10.32;4.50;;;;;;;;;;4994953;28;20081;-76
2022/08/05 04:19:12;;;;;;;11.73;4.45;;;;;;;;;;4994569;28;20395;-73
2022/08/05 04:21:38;;;;;;;24.45;4.65;;;;;;;;;;4992573;28;20113;-75
2022/08/05 04:24:04;;;;;;;8.57;4.00;;;;;;;;;;4995408;28;20022;-73
2022/08/05 04:26:31;;;;;;;47.25;6.13;;;;;;;;;;4994924;28;20080;-73
2022/08/05 04:28:57;;;;;;;8.75;4.38;;;;;;;;;;4994187;28;20022;-76
2022/08/05 04:31:23;;;;;;;14.98;4.28;;;;;;;;;;4994497;28;20544;-75
2022/08/05 04:33:49;;;;;;;5.47;3.83;;;;;;;;;;4997988;28;20073;-80
2022/08/05 04:36:15;;;;;;;8.20;3.83;;;;;;;;;;5019589;28;20503;-74
2022/08/05 04:38:44;;;;;;;7.65;5.28;;;;;;;;;;5016853;28;20116;-74
2022/08/05 04:41:10;;;;;;;6.03;5.00;;;;;;;;;;5013584;28;20026;-73
2022/08/05 04:43:39;;;;;;;12.55;4.80;;;;;;;;;;5013317;28;20032;-74
2022/08/05 04:46:05;;;;;;;13.48;4.93;;;;;;;;;;5017533;28;20037;-73
2022/08/05 04:48:31;;;;;;;9.27;4.30;;;;;;;;;;5013241;28;20057;-79
2022/08/05 04:50:58;;;;;;;10.35;4.38;;;;;;;;;;5013522;28;20046;-73
2022/08/05 04:53:24;;;;;;;7.00;4.30;;;;;;;;;;5012539;28;20034;-77
2022/08/05 04:55:50;;;;;;;8.10;4.40;;;;;;;;;;5015816;28;20050;-79
2022/08/05 04:58:16;;;;;;;10.25;4.47;;;;;;;;;;5013875;28;20025;-73
2022/08/05 05:00:43;;;;;;;9.50;4.57;;;;;;;;;;5013524;28;20030;-74
2022/08/05 05:03:09;;;;;;;8.00;5.00;;;;;;;;;;5013656;28;20380;-73
2022/08/05 05:05:36;;;;;;;10.20;4.68;;;;;;;;;;5017697;28;20021;-76
2022/08/05 05:08:06;;;;;;;9.95;4.50;;;;;;;;;;5012514;28;20475;-73
2022/08/05 05:10:37;;;;;;;7.25;5.07;;;;;;;;;;5013528;28;20025;-73
2022/08/05 05:13:03;;;;;;;8.93;4.57;;;;;;;;;;5010975;28;20466;-74
2022/08/05 05:15:29;;;;;;;9.90;5.07;;;;;;;;;;5006494;28;20396;-71
2022/08/05 05:17:55;;;;;;;9.52;4.63;;;;;;;;;;5014940;28;20022;-72
2022/08/05 05:20:21;;;;;;;8.13;5.00;;;;;;;;;;5023577;28;20067;-71
2022/08/05 05:22:47;;;;;;;8.82;4.80;;;;;;;;;;5013689;28;20025;-71
2022/08/05 05:25:13;;;;;;;13.02;5.80;;;;;;;;;;5012910;28;20029;-71
2022/08/05 05:27:40;;;;;;;24.08;8.60;;;;;;;;;;5017790;28;20060;-74
2022/08/05 05:30:06;;;;;;;22.58;8.82;;;;;;;;;;5012567;28;20116;-70
2022/08/05 05:32:32;;;;;;;12.77;7.07;;;;;;;;;;5012696;28;20024;-73
2022/08/05 05:34:58;;;;;;;9.77;6.10;;;;;;;;;;5021011;28;20410;-72
2022/08/05 05:37:24;;;;;;;13.60;6.15;;;;;;;;;;5032757;28;20080;-73
2022/08/05 05:39:50;;;;;;;16.00;5.70;;;;;;;;;;5032994;28;20025;-77
2022/08/05 05:42:17;;;;;;;11.40;5.70;;;;;;;;;;5032563;28;20052;-71
2022/08/05 05:44:43;;;;;;;7.97;4.53;;;;;;;;;;5032706;28;20052;-71
2022/08/05 05:47:09;;;;;;;10.50;5.10;;;;;;;;;;5011597;28;20472;-70
2022/08/05 05:49:35;;;;;;;16.67;5.05;;;;;;;;;;5024583;28;20105;-86
2022/08/05 05:52:01;;;;;;;6.72;4.88;;;;;;;;;;5027908;28;20067;-83
2022/08/05 05:54:27;;;;;;;9.32;4.88;;;;;;;;;;5037005;28;20490;-85
2022/08/05 05:56:53;;;;;;;11.05;5.35;;;;;;;;;;5025740;28;20475;-91
2022/08/05 05:59:19;;;;;;;7.60;5.32;;;;;;;;;;5030443;28;20022;-89
2022/08/05 06:01:45;;;;;;;9.90;5.20;;;;;;;;;;5016232;28;20447;-86
2022/08/05 06:04:12;;;;;;;9.85;5.97;;;;;;;;;;5013185;28;20037;-83
2022/08/05 06:06:40;;;;;;;12.85;7.07;;;;;;;;;;5014704;28;20022;-86
2022/08/05 06:09:06;;;;;;;15.55;7.55;;;;;;;;;;5030992;28;20482;-88
2022/08/05 06:11:32;;;;;;;14.70;7.00;;;;;;;;;;5043468;28;20467;-88
2022/08/05 06:13:59;;;;;;;12.63;6.43;;;;;;;;;;5015493;28;20033;-84
2022/08/05 06:16:25;;;;;;;8.35;5.35;;;;;;;;;;5023335;28;20116;-77
2022/08/05 06:18:51;;;;;;;13.60;5.50;;;;;;;;;;5029563;28;20028;-84
2022/08/05 06:21:17;;;;;;;6.43;4.80;;;;;;;;;;5026718;28;20099;-85
2022/08/05 06:23:44;;;;;;;8.02;4.35;;;;;;;;;;5031187;28;20159;-81
2022/08/05 06:26:10;;;;;;;7.55;4.65;;;;;;;;;;5031175;28;20021;-87
2022/08/05 06:28:37;;;;;;;9.43;5.03;;;;;;;;;;5026603;28;20029;-86
2022/08/05 06:31:03;;;;;;;7.22;4.47;;;;;;;;;;5031866;28;20128;-85
2022/08/05 06:33:29;;;;;;;6.22;4.10;;;;;;;;;;5032321;28;20026;-84
2022/08/05 06:35:55;;;;;;;11.35;4.10;;;;;;;;;;5016206;28;20053;-91
2022/08/05 06:38:21;;;;;;;8.98;3.90;;;;;;;;;;5016504;28;20029;-84
2022/08/05 06:40:47;;;;;;;10.45;4.40;;;;;;;;;;5031042;28;20028;-84
2022/08/05 06:43:13;;;;;;;9.07;3.90;;;;;;;;;;5019855;28;20036;-80
2022/08/05 06:45:39;;;;;;;9.52;4.43;;;;;;;;;;5028931;28;20056;-83
2022/08/05 06:48:05;;;;;;;8.10;4.65;;;;;;;;;;5016042;28;20025;-91
2022/08/05 06:50:31;;;;;;;10.45;4.10;;;;;;;;;;5011616;28;20026;-72
2022/08/05 06:52:57;;;;;;;10.55;4.40;;;;;;;;;;5028935;28;20045;-90
2022/08/05 06:55:23;;;;;;;18.20;4.72;;;;;;;;;;5034250;28;20037;-90
2022/08/05 06:57:49;;;;;;;10.05;4.30;;;;;;;;;;5032613;28;20398;-84
2022/08/05 07:00:17;;;;;;;6.68;4.43;;;;;;;;;;5014339;28;20088;-69
2022/08/05 07:02:43;;;;;;;6.32;3.92;;;;;;;;;;5030269;28;20113;-69
2022/08/05 07:05:10;;;;;;;5.40;4.18;;;;;;;;;;5031819;28;20527;-77
2022/08/05 07:07:36;;;;;;;4.72;3.95;;;;;;;;;;5029606;28;20037;-73
2022/08/05 07:10:03;;;;;;;18.17;4.90;;;;;;;;;;5031284;28;20033;-70
2022/08/05 07:17:58;;;;;;;6.57;4.13;;;;;;;;;;5030907;28;20092;-70
2022/08/05 07:20:24;;;;;;;7.22;4.07;;;;;;;;;;5031276;28;20079;-71
2022/08/05 07:22:50;;;;;;;4.55;4.05;;;;;;;;;;5026676;28;20026;-72
2022/08/05 07:25:17;;;;;;;9.00;4.97;;;;;;;;;;5030585;28;20026;-71
2022/08/05 07:27:43;;;;;;;7.22;4.50;;;;;;;;;;5029429;28;20025;-70
2022/08/05 07:30:09;;;;;;;5.95;4.75;;;;;;;;;;5030465;28;20034;-77
2022/08/05 07:32:38;;;;;;;14.88;5.32;;;;;;;;;;5034443;28;20505;-71
2022/08/05 07:35:08;;;;;;;7.38;4.95;;;;;;;;;;5030300;28;20077;-70
2022/08/05 07:37:34;;;;;;;6.63;4.40;;;;;;;;;;5034224;28;20033;-72
2022/08/05 07:40:02;;;;;;;7.00;4.57;;;;;;;;;;5035241;28;20071;-74
2022/08/05 07:42:29;;;;;;;9.02;4.22;;;;;;;;;;5027980;28;20029;-70
2022/08/05 07:44:55;;;;;;;5.80;4.53;;;;;;;;;;5029976;28;20128;-70
2022/08/05 07:47:21;;;;;;;16.52;5.25;;;;;;;;;;5031523;28;20655;-70
2022/08/05 07:49:50;;;;;;;9.88;4.70;;;;;;;;;;5033516;28;20087;-71
2022/08/05 07:52:17;;;;;;;9.63;4.40;;;;;;;;;;5032377;28;20033;-81
2022/08/05 07:54:43;;;;;;;6.90;3.60;;;;;;;;;;5030828;28;20060;-84
2022/08/05 07:57:09;;;;;;;15.90;3.90;;;;;;;;;;5031602;28;20072;-82
2022/08/05 07:59:35;;;;;;;7.20;3.53;;;;;;;;;;5034425;28;20096;-87
2022/08/05 08:02:01;;;;;;;9.55;3.67;;;;;;;;;;5042247;28;20014;-87
2022/08/05 08:04:27;;;;;;;7.60;3.30;;;;;;;;;;5038931;28;20029;-84
2022/08/05 08:06:54;;;;;;;6.30;3.50;;;;;;;;;;5031881;28;20037;-75
2022/08/05 08:09:20;;;;;;;7.85;3.38;;;;;;;;;;5031854;28;20021;-76
2022/08/05 08:11:46;;;;;;;4.50;3.50;;;;;;;;;;5033625;28;20068;-75
2022/08/05 08:14:12;;;;;;;12.05;4.25;;;;;;;;;;5032821;28;20044;-81
2022/08/05 08:16:38;;;;;;;7.93;4.20;;;;;;;;;;5039267;28;20026;-83
2022/08/05 08:19:04;;;;;;;5.75;3.55;;;;;;;;;;5041390;28;20028;-86
2022/08/05 08:21:30;;;;;;;6.43;3.70;;;;;;;;;;5029704;28;20021;-79
2022/08/05 08:23:56;;;;;;;6.40;3.55;;;;;;;;;;5030376;28;20122;-69
2022/08/05 08:26:23;;;;;;;15.43;5.07;;;;;;;;;;5031078;28;20021;-84
2022/08/05 08:28:49;;;;;;;4.53;3.35;;;;;;;;;;5021176;28;20033;-82
2022/08/05 08:31:15;;;;;;;3.80;2.95;;;;;;;;;;5032247;28;20025;-85
2022/08/05 08:33:41;;;;;;;48.47;8.73;;;;;;;;;;5014435;28;20025;-74
2022/08/05 08:36:07;;;;;;;15.90;4.45;;;;;;;;;;5036082;28;20525;-75
2022/08/05 08:38:33;;;;;;;18.27;4.45;;;;;;;;;;5032637;28;20030;-72
2022/08/05 08:41:00;;;;;;;12.57;3.90;;;;;;;;;;5031351;28;20033;-84
2022/08/05 08:43:26;;;;;;;7.13;3.60;;;;;;;;;;5033539;28;20501;-78
2022/08/05 08:45:54;;;;;;;22.63;4.85;;;;;;;;;;5031352;28;20064;-87
2022/08/05 08:48:20;;;;;;;8.00;3.35;;;;;;;;;;5030673;28;20123;-85
2022/08/05 08:50:47;;;;;;;5.85;3.20;;;;;;;;;;5031606;28;20076;-86
2022/08/05 08:53:15;;;;;;;7.78;3.45;;;;;;;;;;5006415;28;20056;-79
2022/08/05 08:55:41;;;;;;;37.38;5.25;;;;;;;;;;5033628;28;20037;-73
2022/08/05 08:58:08;;;;;;;4.45;3.30;;;;;;;;;;5031609;28;20021;-75
2022/08/05 09:00:34;;;;;;;3.70;3.00;;;;;;;;;;5031218;28;20035;-78
2022/08/05 09:03:01;;;;;;;4.13;3.00;;;;;;;;;;5031735;28;20096;-78
2022/08/05 09:05:27;;;;;;;7.47;3.58;;;;;;;;;;5031724;28;20061;-86
2022/08/05 09:07:53;;;;;;;4.72;3.55;;;;;;;;;;5014723;28;20026;-81
2022/08/05 09:10:20;;;;;;;7.68;3.30;;;;;;;;;;5020105;28;20040;-86
2022/08/05 09:12:47;;;;;;;4.55;3.20;;;;;;;;;;5029725;28;20471;-80
2022/08/05 09:15:13;;;;;;;5.47;3.35;;;;;;;;;;5032367;28;20099;-87
2022/08/05 09:17:40;;;;;;;4.25;3.10;;;;;;;;;;5032797;28;20057;-83
2022/08/05 09:20:07;;;;;;;6.53;3.20;;;;;;;;;;5031868;28;20021;-83
2022/08/05 09:22:51;;;;;;;19.08;4.25;;;;;;;;;;5020276;28;20567;-85
2022/08/05 09:25:20;;;;;;;102.88;13.45;;;;;;;;;;5029588;28;20037;-83
2022/08/05 09:27:46;;;;;;;11.10;3.55;;;;;;;;;;5031921;28;20074;-78
2022/08/05 09:30:16;;;;;;;43.65;8.60;;;;;;;;;;5029207;28;20037;-78
2022/08/05 09:32:42;;;;;;;11.20;3.97;;;;;;;;;;5027643;28;20026;-79
2022/08/05 09:35:10;;;;;;;12.77;3.80;;;;;;;;;;5029306;28;20064;-72
2022/08/05 09:37:36;;;;;;;3.67;3.00;;;;;;;;;;5028224;28;20029;-73
2022/08/05 09:40:02;;;;;;;7.53;3.20;;;;;;;;;;5031900;28;20033;-69
2022/08/05 09:42:37;;;;;;;6.50;3.42;;;;;;;;;;5030837;28;20164;-68
2022/08/05 09:45:07;;;;;;;7.63;3.28;;;;;;;;;;5024482;28;20045;-67
2022/08/05 09:47:33;;;;;;;8.73;3.20;;;;;;;;;;5030042;28;20025;-71
2022/08/05 09:50:00;;;;;;;7.38;3.53;;;;;;;;;;5029078;28;20447;-68
2022/08/05 09:52:33;;;;;;;10.20;3.42;;;;;;;;;;5030384;28;20076;-75
2022/08/05 09:55:07;;;;;;;3.67;3.20;;;;;;;;;;5030711;28;20465;-69
2022/08/05 09:57:36;;;;;;;14.80;3.90;;;;;;;;;;5029146;28;20115;-75
2022/08/05 10:00:10;;;;;;;5.45;3.30;;;;;;;;;;5031566;28;20076;-70
2022/08/05 10:02:40;;;;;;;5.97;3.20;;;;;;;;;;5029771;28;20029;-77
2022/08/05 10:05:09;;;;;;;3.90;3.20;;;;;;;;;;5029679;28;20068;-76
2022/08/05 10:07:47;;;;;;;4.05;3.10;;;;;;;;;;5029047;28;20044;-74
2022/08/05 10:10:13;;;;;;;4.75;3.15;;;;;;;;;;5030494;28;20382;-82
2022/08/05 10:12:40;;;;;;;4.95;3.33;;;;;;;;;;5031168;28;20072;-78
2022/08/05 10:15:17;;;;;;;4.78;3.03;;;;;;;;;;5031452;28;20041;-78
2022/08/05 10:17:43;;;;;;;20.15;3.85;;;;;;;;;;5030089;28;20029;-76
2022/08/05 10:20:11;;;;;;;3.90;3.20;;;;;;;;;;5030250;28;20029;-68
2022/08/05 10:22:39;;;;;;;7.82;3.20;;;;;;;;;;5029483;28;20018;-76
2022/08/05 10:25:05;;;;;;;33.70;4.80;;;;;;;;;;5029388;28;20479;-84
2022/08/05 10:27:31;;;;;;;7.78;3.35;;;;;;;;;;5039718;28;20100;-78
2022/08/05 10:29:57;;;;;;;3.60;3.22;;;;;;;;;;5018795;28;20033;-77
2022/08/05 10:32:23;;;;;;;4.78;3.20;;;;;;;;;;5030124;28;20359;-72
2022/08/05 10:34:50;;;;;;;5.28;2.97;;;;;;;;;;5025529;28;20064;-71
2022/08/05 10:37:16;;;;;;;4.55;2.92;;;;;;;;;;5027308;28;20092;-78
2022/08/05 10:39:44;;;;;;;5.70;3.35;;;;;;;;;;5030478;28;20025;-71
2022/08/05 10:42:13;;;;;;;21.13;4.22;;;;;;;;;;5029057;28;20025;-70
2022/08/05 10:44:43;;;;;;;7.93;3.50;;;;;;;;;;5030193;28;20026;-81
2022/08/05 10:47:11;;;;;;;4.50;3.20;;;;;;;;;;5031371;28;20026;-79
2022/08/05 10:49:56;;;;;;;7.25;3.53;;;;;;;;;;5030202;28;20025;-74
2022/08/05 10:52:58;;;;;;;7.90;3.42;;;;;;;;;;5031149;28;20040;-72
2022/08/05 10:55:25;;;;;;;8.68;4.43;;;;;;;;;;4944166;29;20067;-79
2022/08/05 10:58:09;;;;;;;8.30;6.13;;;;;;;;;;4946125;28;20041;-80
2022/08/05 11:00:36;;;;;;;11.95;4.20;;;;;;;;;;4949584;29;20118;-75
2022/08/05 11:03:05;;;;;;;4.50;3.28;;;;;;;;;;4949102;28;20489;-73
2022/08/05 11:05:31;;;;;;;4.35;3.30;;;;;;;;;;4944987;29;20561;-69
2022/08/05 11:07:58;;;;;;;4.88;3.55;;;;;;;;;;4950113;29;20059;-68
2022/08/05 11:10:25;;;;;;;4.32;3.20;;;;;;;;;;4954523;29;20033;-72
2022/08/05 11:12:51;;;;;;;3.50;3.08;;;;;;;;;;4953567;29;20031;-74
2022/08/05 11:15:17;;;;;;;4.13;3.33;;;;;;;;;;4952812;29;20035;-74
2022/08/05 11:17:44;;;;;;;4.72;3.60;;;;;;;;;;4950090;28;20162;-78
2022/08/05 11:20:33;;;;;;;4.50;3.92;;;;;;;;;;4952653;29;20027;-74
2022/08/05 11:23:00;;;;;;;12.90;4.00;;;;;;;;;;4881209;29;20072;-72
2022/08/05 11:25:30;;;;;;;4.75;3.25;;;;;;;;;;4885655;29;20096;-76
2022/08/05 11:27:56;;;;;;;6.72;3.30;;;;;;;;;;4878063;29;20488;-78
2022/08/05 11:30:22;;;;;;;4.28;3.50;;;;;;;;;;4888356;29;20142;-70
2022/08/05 11:32:49;;;;;;;15.50;3.72;;;;;;;;;;4923376;29;20028;-75
2022/08/05 11:35:33;;;;;;;4.97;3.30;;;;;;;;;;4914104;29;20489;-72
2022/08/05 11:37:59;;;;;;;6.45;3.20;;;;;;;;;;4913212;29;20059;-74
2022/08/05 11:40:58;;;;;;;3.70;3.20;;;;;;;;;;4915821;29;20036;-70
2022/08/05 11:43:24;;;;;;;4.38;3.28;;;;;;;;;;4835568;29;20042;-73
2022/08/05 11:45:50;;;;;;;10.27;3.63;;;;;;;;;;4836740;29;20034;-70
2022/08/05 11:48:16;;;;;;;22.92;4.32;;;;;;;;;;4830456;29;20133;-74
2022/08/05 11:50:43;;;;;;;4.07;3.25;;;;;;;;;;4843514;29;20075;-69
2022/08/05 11:53:09;;;;;;;7.43;3.58;;;;;;;;;;4842944;29;20049;-70
2022/08/05 11:55:35;;;;;;;5.75;3.50;;;;;;;;;;4839780;29;20049;-76
2022/08/05 11:58:01;;;;;;;6.25;3.33;;;;;;;;;;4835945;29;20485;-70
2022/08/05 12:00:28;;;;;;;7.53;3.50;;;;;;;;;;4880910;29;20395;-77
2022/08/05 12:02:54;;;;;;;4.53;3.50;;;;;;;;;;4898978;29;20371;-76
2022/08/05 12:05:27;;;;;;;4.95;3.15;;;;;;;;;;4900895;29;20048;-74
2022/08/05 12:07:53;;;;;;;;;;;;;;;;;;4897432;29;20028;-77
2022/08/05 12:10:21;;;;;;;5.85;3.50;;;;;;;;;;4900885;29;19932;-78
2022/08/05 12:12:48;;;;;;;3.55;3.13;;;;;;;;;;4915546;29;20581;-85
2022/08/05 12:15:20;;;;;;;4.88;3.40;;;;;;;;;;4905551;29;20530;-78
2022/08/05 12:17:46;;;;;;;61.90;6.20;;;;;;;;;;4887966;28;20084;-79
2022/08/05 12:20:12;;;;;;;10.20;3.30;;;;;;;;;;5012994;28;20030;-72
2022/08/05 12:22:38;;;;;;;7.60;3.40;;;;;;;;;;5009658;28;20174;-72
2022/08/05 12:25:05;;;;;;;8.63;3.50;;;;;;;;;;5020143;28;20087;-84
2022/08/05 12:27:31;;;;;;;4.93;3.38;;;;;;;;;;5016970;28;20382;-89
2022/08/05 12:29:58;;;;;;;5.60;3.83;;;;;;;;;;5019819;28;20041;-70
2022/08/05 12:32:24;;;;;;;5.85;3.28;;;;;;;;;;5011877;28;20026;-74
2022/08/05 12:34:50;;;;;;;9.30;3.70;;;;;;;;;;5005394;28;20062;-78
2022/08/05 12:37:16;;;;;;;8.10;3.45;;;;;;;;;;4999733;28;20026;-79
2022/08/05 12:39:42;;;;;;;5.28;3.47;;;;;;;;;;4998409;28;20026;-82
2022/08/05 12:42:13;;;;;;;4.55;3.17;;;;;;;;;;4992470;28;20035;-75
2022/08/05 12:44:40;;;;;;;5.97;3.33;;;;;;;;;;4994192;28;20030;-74
2022/08/05 12:47:06;;;;;;;6.82;3.63;;;;;;;;;;5000300;28;20034;-81
2022/08/05 12:49:45;;;;;;;3.80;3.10;;;;;;;;;;4996010;28;20019;-95
2022/08/05 12:52:15;;;;;;;5.22;3.00;;;;;;;;;;4994393;28;20026;-70
2022/08/05 12:54:42;;;;;;;5.10;3.20;;;;;;;;;;4992155;28;20042;-83
2022/08/05 12:57:10;;;;;;;9.07;3.20;;;;;;;;;;4993428;28;20420;-86
2022/08/05 12:59:49;;;;;;;3.42;2.85;;;;;;;;;;4996412;28;20049;-76
2022/08/05 13:02:18;;;;;;;5.07;3.58;;;;;;;;;;4995887;28;20061;-70
2022/08/05 13:04:45;;;;;;;6.25;3.35;;;;;;;;;;4991823;28;20033;-83
2022/08/05 13:07:12;;;;;;;7.68;3.67;;;;;;;;;;4992006;28;20035;-80
2022/08/05 13:10:04;;;;;;;4.13;3.30;;;;;;;;;;4992331;28;20026;-85
2022/08/05 13:12:30;;;;;;;4.30;3.55;;;;;;;;;;4991436;28;20064;-70
2022/08/05 13:14:58;;;;;;;3.63;3.08;;;;;;;;;;4992096;28;20045;-75
2022/08/05 13:17:28;;;;;;;6.63;3.50;;;;;;;;;;4994043;28;20030;-80
2022/08/05 13:20:00;;;;;;;18.90;4.00;;;;;;;;;;5005151;28;20037;-81
2022/08/05 13:22:27;;;;;;;7.90;3.00;;;;;;;;;;5001462;28;20022;-75
2022/08/05 13:24:53;;;;;;;6.40;3.45;;;;;;;;;;4992188;28;20280;-76
2022/08/05 13:27:28;;;;;;;3.20;2.90;;;;;;;;;;4993620;28;20034;-80
2022/08/05 13:29:54;;;;;;;5.15;3.40;;;;;;;;;;4992137;28;20034;-75
2022/08/05 13:32:20;;;;;;;6.55;3.45;;;;;;;;;;4997972;28;20075;-74
2022/08/05 13:34:47;;;;;;;3.75;3.35;;;;;;;;;;4990719;28;20050;-73
2022/08/05 13:37:14;;;;;;;4.28;3.20;;;;;;;;;;4992540;28;20034;-74
2022/08/05 13:39:40;;;;;;;4.60;3.58;;;;;;;;;;4991973;28;20038;-74
2022/08/05 13:42:06;;;;;;;7.88;3.58;;;;;;;;;;4993866;28;20034;-78
2022/08/05 13:44:32;;;;;;;7.13;3.20;;;;;;;;;;4989741;28;20023;-80
2022/08/05 13:46:58;;;;;;;9.00;3.40;;;;;;;;;;4992651;28;20026;-76
2022/08/05 13:49:24;;;;;;;7.25;3.20;;;;;;;;;;5010259;28;20026;-76
2022/08/05 13:51:50;;;;;;;5.38;3.47;;;;;;;;;;5000149;28;20069;-76
2022/08/05 13:54:19;;;;;;;6.25;3.38;;;;;;;;;;4990179;28;20033;-74
2022/08/05 13:56:45;;;;;;;5.10;3.38;;;;;;;;;;4994007;28;20092;-74
2022/08/05 13:59:11;;;;;;;10.90;3.63;;;;;;;;;;4995599;28;20063;-72
2022/08/05 14:01:37;;;;;;;6.85;3.20;;;;;;;;;;4995663;28;20027;-70
2022/08/05 14:06:48;;;;;;;5.03;3.45;;;;;;;;;;4991798;28;20073;-72
2022/08/05 14:09:14;;;;;;;4.93;3.20;;;;;;;;;;4988517;28;20026;-73
2022/08/05 14:11:40;;;;;;;6.20;3.50;;;;;;;;;;5002238;28;20022;-73
2022/08/05 14:14:07;;;;;;;7.72;3.20;;;;;;;;;;4990801;28;20495;-67
2022/08/05 14:16:33;;;;;;;3.40;2.92;;;;;;;;;;4988585;28;20042;-74
2022/08/05 14:19:00;;;;;;;6.78;3.20;;;;;;;;;;4998644;28;20384;-73
2022/08/05 14:21:26;;;;;;;5.10;3.50;;;;;;;;;;4997052;28;20023;-72
2022/08/05 14:23:53;;;;;;;5.45;3.33;;;;;;;;;;4989725;28;20034;-69
2022/08/05 14:26:19;;;;;;;11.85;3.92;;;;;;;;;;4992479;28;20034;-72
2022/08/05 14:28:45;;;;;;;4.68;3.50;;;;;;;;;;4975978;28;20391;-75
2022/08/05 14:31:11;;;;;;;4.20;3.20;;;;;;;;;;4992129;28;20463;-69
2022/08/05 14:33:37;;;;;;;5.90;3.50;;;;;;;;;;4990542;28;20838;-73
2022/08/05 14:36:03;;;;;;;3.90;3.30;;;;;;;;;;4991084;28;20150;-72
2022/08/05 14:38:29;;;;;;;5.05;3.53;;;;;;;;;;4995363;28;20030;-74
2022/08/05 14:40:56;;;;;;;9.10;3.53;;;;;;;;;;4996461;28;20057;-73
2022/08/05 14:43:22;;;;;;;4.95;3.17;;;;;;;;;;4996767;28;20097;-77
2022/08/05 14:45:48;;;;;;;3.30;2.95;;;;;;;;;;4988632;28;20032;-71
2022/08/05 14:48:14;;;;;;;3.92;3.25;;;;;;;;;;4995091;28;20030;-73
2022/08/05 14:50:40;;;;;;;3.63;3.00;;;;;;;;;;4992824;28;20027;-74